createdAt,value
2018-06-15T00:00:16.731Z,13.60
2018-06-15T00:02:51.502Z,15.27
2018-06-15T00:05:20.553Z,14.23
2018-06-15T00:07:49.358Z,17.10
2018-06-15T00:10:17.933Z,14.87
2018-06-15T00:12:46.950Z,16.10
2018-06-15T00:15:16.051Z,14.93
2018-06-15T00:17:44.607Z,17.67
2018-06-15T00:20:13.612Z,19.17
2018-06-15T00:22:42.273Z,18.23
2018-06-15T00:25:11.258Z,18.53
2018-06-15T00:27:39.955Z,17.50
2018-06-15T00:30:08.993Z,19.07
2018-06-15T00:32:37.640Z,19.43
2018-06-15T00:35:06.474Z,18.23
2018-06-15T00:37:35.298Z,19.30
2018-06-15T00:40:03.870Z,19.63
2018-06-15T00:42:32.709Z,19.40
2018-06-15T00:45:02.323Z,19.53
2018-06-15T00:47:31.478Z,20.07
2018-06-15T00:50:00.511Z,21.03
2018-06-15T00:52:29.673Z,21.33
2018-06-15T00:54:58.589Z,21.33
2018-06-15T00:57:42.945Z,21.27
2018-06-15T01:00:11.861Z,23.03
2018-06-15T01:02:41.013Z,23.10
2018-06-15T01:05:10.237Z,24.00
2018-06-15T01:07:39.097Z,22.60
2018-06-15T01:10:08.149Z,22.37
2018-06-15T01:12:37.224Z,23.90
2018-06-15T01:15:05.942Z,24.57
2018-06-15T01:17:35.373Z,22.23
2018-06-15T01:20:04.397Z,23.57
2018-06-15T01:22:33.129Z,22.80
2018-06-15T01:25:01.959Z,25.20
2018-06-15T01:27:30.810Z,25.00
2018-06-15T01:29:59.652Z,24.00
2018-06-15T01:32:28.760Z,23.87
2018-06-15T01:34:57.279Z,24.60
2018-06-15T01:37:26.173Z,25.20
2018-06-15T01:39:55.819Z,26.13
2018-06-15T01:42:24.615Z,24.73
2018-06-15T01:44:53.528Z,24.00
2018-06-15T01:47:22.237Z,25.10
2018-06-15T01:49:51.050Z,25.03
2018-06-15T01:52:20.209Z,25.03
2018-06-15T01:54:49.106Z,24.60
2018-06-15T01:57:17.946Z,26.43
2018-06-15T01:59:47.013Z,27.00
2018-06-15T02:02:16.127Z,26.37
2018-06-15T02:04:44.922Z,26.50
2018-06-15T02:07:14.259Z,27.40
2018-06-15T02:09:42.835Z,25.20
2018-06-15T02:12:11.305Z,25.33
2018-06-15T02:14:40.063Z,26.73
2018-06-15T02:17:09.261Z,25.77
2018-06-15T02:19:38.898Z,27.10
2018-06-15T02:22:08.145Z,27.40
2018-06-15T02:24:36.946Z,26.70
2018-06-15T02:27:06.066Z,26.73
2018-06-15T02:29:34.663Z,26.20
2018-06-15T02:32:03.406Z,26.60
2018-06-15T02:34:32.861Z,25.63
2018-06-15T02:37:01.636Z,25.57
2018-06-15T02:39:30.539Z,27.97
2018-06-15T02:41:59.643Z,26.70
2018-06-15T02:44:29.138Z,28.87
2018-06-15T02:46:57.949Z,27.00
2018-06-15T02:49:27.242Z,26.67
2018-06-15T02:51:56.103Z,27.57
2018-06-15T02:54:24.998Z,27.17
2018-06-15T02:56:53.781Z,29.00
2018-06-15T02:59:22.796Z,27.20
2018-06-15T03:01:51.826Z,29.60
2018-06-15T03:04:20.750Z,28.70
2018-06-15T03:06:49.854Z,28.60
2018-06-15T03:09:18.858Z,30.00
2018-06-15T03:11:47.345Z,29.87
2018-06-15T03:14:15.818Z,27.63
2018-06-15T03:16:44.925Z,28.43
2018-06-15T03:19:13.908Z,29.70
2018-06-15T03:21:43.058Z,29.73
2018-06-15T03:24:12.657Z,28.53
2018-06-15T03:26:41.681Z,28.93
2018-06-15T03:29:11.122Z,30.20
2018-06-15T03:31:40.623Z,31.27
2018-06-15T03:34:09.165Z,30.20
2018-06-15T03:36:37.636Z,30.30
2018-06-15T03:39:08.560Z,30.33
2018-06-15T03:41:37.361Z,32.33
2018-06-15T03:44:06.333Z,30.50
2018-06-15T03:46:35.625Z,30.90
2018-06-15T03:49:04.436Z,29.63
2018-06-15T03:51:33.359Z,32.50
2018-06-15T03:54:02.634Z,31.10
2018-06-15T03:56:31.887Z,31.30
2018-06-15T03:59:00.529Z,30.33
2018-06-15T04:01:29.684Z,30.70
2018-06-15T04:03:58.498Z,31.90
2018-06-15T04:06:27.663Z,31.17
2018-06-15T04:08:56.216Z,32.30
2018-06-15T04:11:25.323Z,31.20
2018-06-15T04:13:54.138Z,38.07
2018-06-15T04:16:23.283Z,31.47
2018-06-15T04:18:52.512Z,31.23
2018-06-15T04:21:21.577Z,32.43
2018-06-15T04:23:50.117Z,31.97
2018-06-15T04:26:18.889Z,32.27
2018-06-15T04:28:48.302Z,32.23
2018-06-15T04:31:17.484Z,33.10
2018-06-15T04:33:46.534Z,33.77
2018-06-15T04:36:15.698Z,30.60
2018-06-15T04:38:44.509Z,34.23
2018-06-15T04:41:13.316Z,33.77
2018-06-15T04:43:42.651Z,33.50
2018-06-15T04:46:11.542Z,34.83
2018-06-15T04:48:40.338Z,30.90
2018-06-15T04:51:16.002Z,31.70
2018-06-15T04:53:44.998Z,31.07
2018-06-15T04:56:14.178Z,30.30
2018-06-15T04:58:42.749Z,30.30
2018-06-15T05:01:11.466Z,31.00
2018-06-15T05:03:40.008Z,31.03
2018-06-15T05:06:08.727Z,31.47
2018-06-15T05:08:37.630Z,31.87
2018-06-15T05:11:06.357Z,31.87
2018-06-15T05:13:35.687Z,29.77
2018-06-15T05:16:04.459Z,31.07
2018-06-15T05:18:33.014Z,29.97
2018-06-15T05:21:02.654Z,29.33
2018-06-15T05:23:31.866Z,30.87
2018-06-15T05:26:00.680Z,29.50
2018-06-15T05:28:29.495Z,30.53
2018-06-15T05:30:58.694Z,30.97
2018-06-15T05:33:27.937Z,29.27
2018-06-15T05:35:57.287Z,30.33
2018-06-15T05:38:26.959Z,29.40
2018-06-15T05:40:55.931Z,30.03
2018-06-15T05:43:25.190Z,30.90
2018-06-15T05:45:53.982Z,29.37
2018-06-15T05:48:23.023Z,30.20
2018-06-15T05:50:52.139Z,29.37
2018-06-15T05:53:20.927Z,29.37
2018-06-15T05:55:49.777Z,28.00
2018-06-15T05:58:18.523Z,28.70
2018-06-15T06:00:47.609Z,29.50
2018-06-15T06:03:19.176Z,27.97
2018-06-15T06:05:49.438Z,27.30
2018-06-15T06:08:19.622Z,28.97
2018-06-15T06:10:48.633Z,27.90
2018-06-15T06:13:17.960Z,29.50
2018-06-15T06:15:47.411Z,29.20
2018-06-15T06:18:15.863Z,28.67
2018-06-15T06:20:45.059Z,30.10
2018-06-15T06:23:13.866Z,27.50
2018-06-15T06:25:42.470Z,28.57
2018-06-15T06:28:10.898Z,26.53
2018-06-15T06:30:39.441Z,26.70
2018-06-15T06:33:08.276Z,28.67
2018-06-15T06:35:36.931Z,28.70
2018-06-15T06:38:05.815Z,27.17
2018-06-15T06:40:34.382Z,26.17
2018-06-15T06:43:02.870Z,26.60
2018-06-15T06:45:31.773Z,26.50
2018-06-15T06:48:00.331Z,25.57
2018-06-15T06:50:28.821Z,26.23
2018-06-15T06:52:57.333Z,25.60
2018-06-15T06:55:26.140Z,23.90
2018-06-15T06:57:54.607Z,25.30
2018-06-15T07:00:23.420Z,22.70
2018-06-15T07:02:51.885Z,23.50
2018-06-15T07:05:20.648Z,22.23
2018-06-15T07:07:50.290Z,24.10
2018-06-15T07:10:18.830Z,24.13
2018-06-15T07:12:47.822Z,24.30
2018-06-15T07:15:16.393Z,22.27
2018-06-15T07:17:45.150Z,24.90
2018-06-15T07:20:13.886Z,24.00
2018-06-15T07:22:42.457Z,24.40
2018-06-15T07:25:10.944Z,33.77
2018-06-15T07:27:39.422Z,27.80
2018-06-15T07:30:08.403Z,26.27
2018-06-15T07:32:36.998Z,22.87
2018-06-15T07:35:05.462Z,24.73
2018-06-15T07:37:34.085Z,21.73
2018-06-15T07:40:03.000Z,20.97
2018-06-15T07:42:32.404Z,20.80
2018-06-15T07:45:01.933Z,20.40
2018-06-15T07:47:31.106Z,18.53
2018-06-15T07:50:00.098Z,20.60
2018-06-15T07:52:28.630Z,20.13
2018-06-15T07:54:57.628Z,21.23
2018-06-15T07:57:26.577Z,20.73
2018-06-15T07:59:55.609Z,21.03
2018-06-15T08:02:24.654Z,16.97
2018-06-15T08:04:53.655Z,18.20
2018-06-15T08:07:22.950Z,18.83
2018-06-15T08:09:51.897Z,17.00
2018-06-15T08:12:20.808Z,14.63
2018-06-15T08:14:50.237Z,14.00
2018-06-15T08:17:18.960Z,17.77
2018-06-15T08:19:47.457Z,15.40
2018-06-15T08:22:15.966Z,15.60
2018-06-15T08:24:44.703Z,16.90
2018-06-15T08:27:13.259Z,15.47
2018-06-15T08:29:41.779Z,16.70
2018-06-15T08:32:11.343Z,16.20
2018-06-15T08:34:40.446Z,15.70
2018-06-15T08:37:09.363Z,17.00
2018-06-15T08:39:37.802Z,17.40
2018-06-15T08:42:07.268Z,14.40
2018-06-15T08:44:35.755Z,17.03
2018-06-15T08:47:04.462Z,16.40
2018-06-15T08:49:33.611Z,17.13
2018-06-15T08:52:02.434Z,17.33
2018-06-15T08:54:31.666Z,18.60
2018-06-15T08:57:00.297Z,17.73
2018-06-15T08:59:29.000Z,19.07
2018-06-15T09:02:01.452Z,18.03
2018-06-15T09:04:32.064Z,16.80
2018-06-15T09:07:00.569Z,14.90
2018-06-15T09:09:29.680Z,16.23
2018-06-15T09:11:58.527Z,16.07
2018-06-15T09:14:27.731Z,16.20
2018-06-15T09:16:56.257Z,15.33
2018-06-15T09:19:25.013Z,15.53
2018-06-15T09:21:53.489Z,16.30
2018-06-15T09:24:22.219Z,14.47
2018-06-15T09:26:51.085Z,12.23
2018-06-15T09:29:19.605Z,14.30
2018-06-15T09:31:48.296Z,12.60
2018-06-15T09:34:17.246Z,13.20
2018-06-15T09:36:46.398Z,14.80
2018-06-15T09:39:14.948Z,15.23
2018-06-15T09:41:44.126Z,13.23
2018-06-15T09:44:12.587Z,14.80
2018-06-15T09:46:41.298Z,14.43
2018-06-15T09:49:10.104Z,13.70
2018-06-15T09:51:39.080Z,14.73
2018-06-15T09:54:08.098Z,14.20
2018-06-15T09:56:37.099Z,13.93
2018-06-15T09:59:05.763Z,13.90
2018-06-15T10:01:34.654Z,14.03
2018-06-15T10:04:03.544Z,14.33
2018-06-15T10:06:32.987Z,14.53
2018-06-15T10:09:01.562Z,14.53
2018-06-15T10:11:30.058Z,15.17
2018-06-15T10:13:58.502Z,14.47
2018-06-15T10:16:27.366Z,14.00
2018-06-15T10:18:55.842Z,14.47
2018-06-15T10:21:24.712Z,14.77
2018-06-15T10:23:53.505Z,15.30
2018-06-15T10:26:23.090Z,16.07
2018-06-15T10:28:51.658Z,14.53
2018-06-15T10:31:20.138Z,14.40
2018-06-15T10:33:48.599Z,14.90
2018-06-15T10:36:18.041Z,13.77
2018-06-15T10:38:47.447Z,13.57
2018-06-15T10:41:16.012Z,15.40
2018-06-15T10:43:44.546Z,12.30
2018-06-15T10:46:14.104Z,11.70
2018-06-15T10:48:43.483Z,11.33
2018-06-15T10:51:12.829Z,12.37
2018-06-15T10:53:41.356Z,17.37
2018-06-15T10:56:09.836Z,12.60
2018-06-15T10:58:38.842Z,15.47
2018-06-15T11:01:07.393Z,11.90
2018-06-15T11:03:36.118Z,11.17
2018-06-15T11:06:04.683Z,10.50
2018-06-15T11:08:33.213Z,10.80
2018-06-15T11:11:02.058Z,9.33
2018-06-15T11:13:30.925Z,8.10
2018-06-15T11:15:59.378Z,10.40
2018-06-15T11:18:27.839Z,9.60
2018-06-15T11:20:56.558Z,7.93
2018-06-15T11:23:25.116Z,6.63
2018-06-15T11:25:53.585Z,7.20
2018-06-15T11:28:22.044Z,7.87
2018-06-15T11:30:50.932Z,10.80
2018-06-15T11:33:19.746Z,9.73
2018-06-15T11:35:48.639Z,8.97
2018-06-15T11:38:17.672Z,7.30
2018-06-15T11:40:46.214Z,6.10
2018-06-15T11:43:14.646Z,6.20
2018-06-15T11:45:43.115Z,17.43
2018-06-15T11:48:11.831Z,6.87
2018-06-15T11:50:40.833Z,6.97
2018-06-15T11:53:09.611Z,6.90
2018-06-15T11:55:39.058Z,6.83
2018-06-15T11:58:07.593Z,6.90
2018-06-15T12:00:36.275Z,6.90
2018-06-15T12:03:04.838Z,6.70
2018-06-15T12:05:33.530Z,6.40
2018-06-15T12:08:02.380Z,6.53
2018-06-15T12:10:30.925Z,7.60
2018-06-15T12:12:59.622Z,7.70
2018-06-15T12:15:28.886Z,7.27
2018-06-15T12:17:57.371Z,7.30
2018-06-15T12:20:25.858Z,6.53
2018-06-15T12:22:54.302Z,6.30
2018-06-15T12:25:23.095Z,6.60
2018-06-15T12:27:52.189Z,6.10
2018-06-15T12:30:21.088Z,6.40
2018-06-15T12:32:50.371Z,6.37
2018-06-15T12:35:19.586Z,5.23
2018-06-15T12:37:48.655Z,6.13
2018-06-15T12:40:17.417Z,5.80
2018-06-15T12:42:46.893Z,5.50
2018-06-15T12:45:15.922Z,5.90
2018-06-15T12:47:44.539Z,5.13
2018-06-15T12:50:13.349Z,7.27
2018-06-15T12:52:41.821Z,5.23
2018-06-15T12:55:10.726Z,5.17
2018-06-15T12:57:39.298Z,5.30
2018-06-15T13:00:07.738Z,5.07
2018-06-15T13:02:36.225Z,4.93
2018-06-15T13:05:05.053Z,5.50
2018-06-15T13:07:34.050Z,5.20
2018-06-15T13:10:02.973Z,5.03
2018-06-15T13:12:31.746Z,4.67
2018-06-15T13:15:00.266Z,5.63
2018-06-15T13:17:29.306Z,4.63
2018-06-15T13:19:58.619Z,4.87
2018-06-15T13:22:27.074Z,5.97
2018-06-15T13:24:56.099Z,5.27
2018-06-15T13:27:25.499Z,6.33
2018-06-15T13:29:54.699Z,6.07
2018-06-15T13:32:23.511Z,5.90
2018-06-15T13:34:52.994Z,5.90
2018-06-15T13:37:22.662Z,6.20
2018-06-15T13:39:51.177Z,6.20
2018-06-15T13:42:20.218Z,5.13
2018-06-15T13:44:48.931Z,6.00
2018-06-15T13:47:21.018Z,4.83
2018-06-15T13:49:49.566Z,5.77
2018-06-15T13:52:18.305Z,5.50
2018-06-15T13:54:47.157Z,5.70
2018-06-15T13:57:15.621Z,5.77
2018-06-15T13:59:44.951Z,5.80
2018-06-15T14:02:13.500Z,5.77
2018-06-15T14:04:41.951Z,5.43
2018-06-15T14:07:11.206Z,5.30
2018-06-15T14:09:39.674Z,5.83
2018-06-15T14:12:08.106Z,5.30
2018-06-15T14:14:37.110Z,6.20
2018-06-15T14:17:06.093Z,5.80
2018-06-15T14:19:35.011Z,6.50
2018-06-15T14:22:03.473Z,6.30
2018-06-15T14:24:33.357Z,6.23
2018-06-15T14:27:01.811Z,6.00
2018-06-15T14:29:30.266Z,5.97
2018-06-15T14:31:59.410Z,6.50
2018-06-15T14:34:28.226Z,5.60
2018-06-15T14:36:57.035Z,7.10
2018-06-15T14:39:26.671Z,5.73
2018-06-15T14:41:55.892Z,5.60
2018-06-15T14:44:24.847Z,7.17
2018-06-15T14:46:53.425Z,6.50
2018-06-15T14:49:22.186Z,8.27
2018-06-15T14:51:50.832Z,6.30
2018-06-15T14:54:19.689Z,19.83
2018-06-15T14:56:48.193Z,6.27
2018-06-15T14:59:16.869Z,6.90
2018-06-15T15:01:45.948Z,6.87
2018-06-15T15:04:14.769Z,7.40
2018-06-15T15:06:43.265Z,5.97
2018-06-15T15:09:11.753Z,5.43
2018-06-15T15:11:40.218Z,6.43
2018-06-15T15:14:08.993Z,7.20
2018-06-15T15:16:37.472Z,7.10
2018-06-15T15:19:05.999Z,7.63
2018-06-15T15:21:34.458Z,7.00
2018-06-15T15:24:03.332Z,7.63
2018-06-15T15:26:32.304Z,7.93
2018-06-15T15:29:00.739Z,8.50
2018-06-15T15:31:29.949Z,7.37
2018-06-15T15:33:58.422Z,8.53
2018-06-15T15:36:27.415Z,8.00
2018-06-15T15:38:55.850Z,8.20
2018-06-15T15:41:24.949Z,8.77
2018-06-15T15:43:53.502Z,7.40
2018-06-15T15:46:22.631Z,7.30
2018-06-15T15:48:51.347Z,7.13
2018-06-15T15:51:19.963Z,7.57
2018-06-15T15:53:48.738Z,7.73
2018-06-15T15:56:17.573Z,7.13
2018-06-15T15:58:46.312Z,6.67
2018-06-15T16:01:14.858Z,6.70
2018-06-15T16:03:43.333Z,7.17
2018-06-15T16:06:11.785Z,7.50
2018-06-15T16:08:40.643Z,6.50
2018-06-15T16:11:09.285Z,7.27
2018-06-15T16:13:37.833Z,6.40
2018-06-15T16:16:07.447Z,7.03
2018-06-15T16:18:35.973Z,6.70
2018-06-15T16:21:05.663Z,6.83
2018-06-15T16:23:34.193Z,6.23
2018-06-15T16:26:03.358Z,6.80
2018-06-15T16:28:32.786Z,5.60
2018-06-15T16:31:01.337Z,6.00
2018-06-15T16:33:29.823Z,6.47
2018-06-15T16:35:58.322Z,7.07
2018-06-15T16:38:28.180Z,6.50
2018-06-15T16:40:57.231Z,7.00
2018-06-15T16:43:26.500Z,6.50
2018-06-15T16:45:55.434Z,6.37
2018-06-15T16:48:24.589Z,5.77
2018-06-15T16:50:53.397Z,5.93
2018-06-15T16:53:22.211Z,6.47
2018-06-15T16:55:51.357Z,6.20
2018-06-15T16:58:20.165Z,6.23
2018-06-15T17:00:49.324Z,6.60
2018-06-15T17:03:18.449Z,6.67
2018-06-15T17:05:47.251Z,5.93
2018-06-15T17:08:16.507Z,5.47
2018-06-15T17:10:45.652Z,6.30
2018-06-15T17:13:14.880Z,5.60
2018-06-15T17:15:44.204Z,5.57
2018-06-15T17:18:13.096Z,6.13
2018-06-15T17:20:42.735Z,8.00
2018-06-15T17:23:12.214Z,6.70
2018-06-15T17:25:41.736Z,7.30
2018-06-15T17:28:10.849Z,5.93
2018-06-15T17:30:40.489Z,6.17
2018-06-15T17:33:09.339Z,5.20
2018-06-15T17:35:38.427Z,5.30
2018-06-15T17:38:08.046Z,5.80
2018-06-15T17:40:37.207Z,6.63
2018-06-15T17:43:06.188Z,6.27
2018-06-15T17:45:35.194Z,8.60
2018-06-15T17:48:04.229Z,6.70
2018-06-15T17:50:33.238Z,6.23
2018-06-15T17:53:02.814Z,6.00
2018-06-15T17:55:31.936Z,6.90
2018-06-15T17:58:01.157Z,5.00
2018-06-15T18:00:30.084Z,5.67
2018-06-15T18:02:59.130Z,5.90
2018-06-15T18:05:28.568Z,5.87
2018-06-15T18:07:57.422Z,5.70
2018-06-15T18:10:26.205Z,6.00
2018-06-15T18:12:54.838Z,5.93
2018-06-15T18:15:23.961Z,5.80
2018-06-15T18:17:52.773Z,5.37
2018-06-15T18:20:22.019Z,4.53
2018-06-15T18:22:51.259Z,5.80
2018-06-15T18:25:20.378Z,5.00
2018-06-15T18:27:49.201Z,5.50
2018-06-15T18:30:18.457Z,5.70
2018-06-15T18:32:47.013Z,5.10
2018-06-15T18:35:15.695Z,5.23
2018-06-15T18:37:44.253Z,5.00
2018-06-15T18:40:13.970Z,4.70
2018-06-15T18:42:43.121Z,5.40
2018-06-15T18:45:11.767Z,5.23
2018-06-15T18:47:40.633Z,5.23
2018-06-15T18:50:09.093Z,5.63
2018-06-15T18:52:38.374Z,5.00
2018-06-15T18:55:07.403Z,6.17
2018-06-15T18:57:35.873Z,5.80
2018-06-15T19:00:05.076Z,5.37
2018-06-15T19:02:34.290Z,5.73
2018-06-15T19:05:03.053Z,5.83
2018-06-15T19:07:32.212Z,5.40
2018-06-15T19:10:01.007Z,5.80
2018-06-15T19:12:29.805Z,5.57
2018-06-15T19:14:58.980Z,5.00
2018-06-15T19:17:28.187Z,5.70
2018-06-15T19:19:57.158Z,5.20
2018-06-15T19:22:26.058Z,5.50
2018-06-15T19:24:55.199Z,6.33
2018-06-15T19:27:24.910Z,5.00
2018-06-15T19:29:54.107Z,5.63
2018-06-15T19:32:23.395Z,5.57
2018-06-15T19:34:52.007Z,5.23
2018-06-15T19:37:20.516Z,6.50
2018-06-15T19:39:49.241Z,5.70
2018-06-15T19:42:18.126Z,5.70
2018-06-15T19:44:47.023Z,5.70
2018-06-15T19:47:16.342Z,6.00
2018-06-15T19:49:45.178Z,7.17
2018-06-15T19:52:14.142Z,5.83
2018-06-15T19:54:42.861Z,4.70
2018-06-15T19:57:11.358Z,5.20
2018-06-15T19:59:39.880Z,5.77
2018-06-15T20:02:08.357Z,5.33
2018-06-15T20:04:37.203Z,5.50
2018-06-15T20:07:05.823Z,5.37
2018-06-15T20:09:34.443Z,5.90
2018-06-15T20:12:02.886Z,6.77
2018-06-15T20:14:31.770Z,5.47
2018-06-15T20:17:00.646Z,5.90
2018-06-15T20:19:29.768Z,5.90
2018-06-15T20:21:58.922Z,6.90
2018-06-15T20:24:27.723Z,7.00
2018-06-15T20:26:56.266Z,6.07
2018-06-15T20:29:25.262Z,5.90
2018-06-15T20:31:54.278Z,5.77
2018-06-15T20:34:22.957Z,6.87
2018-06-15T20:36:51.509Z,10.20
2018-06-15T20:39:20.110Z,7.10
2018-06-15T20:41:48.906Z,7.50
2018-06-15T20:44:17.823Z,6.63
2018-06-15T20:46:46.773Z,6.80
2018-06-15T20:49:16.279Z,6.47
2018-06-15T20:51:45.362Z,6.20
2018-06-15T20:54:14.342Z,7.03
2018-06-15T20:56:43.341Z,7.20
2018-06-15T20:59:12.463Z,6.73
2018-06-15T21:01:40.998Z,7.20
2018-06-15T21:04:09.466Z,7.10
2018-06-15T21:06:39.050Z,7.33
2018-06-15T21:09:08.657Z,7.33
2018-06-15T21:11:37.795Z,8.30
2018-06-15T21:14:06.898Z,8.93
2018-06-15T21:16:36.775Z,6.70
2018-06-15T21:19:06.431Z,6.90
2018-06-15T21:21:35.527Z,7.57
2018-06-15T21:24:04.231Z,7.13
2018-06-15T21:26:33.774Z,7.23
2018-06-15T21:29:02.610Z,6.87
2018-06-15T21:31:32.059Z,7.40
2018-06-15T21:34:00.840Z,7.00
2018-06-15T21:36:29.812Z,7.50
2018-06-15T21:38:58.638Z,7.33
2018-06-15T21:41:27.511Z,9.87
2018-06-15T21:43:56.591Z,15.60
2018-06-15T21:46:25.425Z,9.90
2018-06-15T21:48:54.610Z,7.33
2018-06-15T21:51:23.412Z,6.80
2018-06-15T21:53:52.217Z,7.20
2018-06-15T21:56:21.478Z,7.20
2018-06-15T21:58:50.699Z,8.60
2018-06-15T22:01:20.630Z,7.57
2018-06-15T22:03:49.878Z,8.67
2018-06-15T22:06:18.950Z,7.43
2018-06-15T22:08:47.507Z,7.37
2018-06-15T22:11:16.605Z,7.33
2018-06-15T22:13:46.486Z,7.60
2018-06-15T22:16:15.320Z,7.73
2018-06-15T22:18:44.099Z,8.10
2018-06-15T22:21:13.410Z,8.20
2018-06-15T22:23:42.305Z,8.00
2018-06-15T22:26:11.763Z,7.50
2018-06-15T22:28:40.466Z,8.43
2018-06-15T22:31:09.335Z,8.80
2018-06-15T22:33:38.159Z,7.43
2018-06-15T22:36:07.441Z,6.80
2018-06-15T22:38:36.687Z,7.80
2018-06-15T22:41:05.777Z,8.40
2018-06-15T22:43:34.846Z,7.60
2018-06-15T22:46:04.371Z,8.03
2018-06-15T22:48:33.195Z,7.43
2018-06-15T22:51:02.006Z,7.10
2018-06-15T22:53:30.822Z,7.10
2018-06-15T22:55:59.656Z,7.53
2018-06-15T22:58:28.836Z,7.67
2018-06-15T23:00:57.969Z,7.47
2018-06-15T23:03:26.782Z,7.33
2018-06-15T23:05:55.933Z,8.10
2018-06-15T23:08:24.812Z,8.03
2018-06-15T23:10:54.238Z,8.00
2018-06-15T23:13:23.119Z,8.67
2018-06-15T23:15:52.272Z,9.27
2018-06-15T23:18:21.087Z,9.57
2018-06-15T23:20:50.209Z,9.37
2018-06-15T23:23:19.423Z,8.10
2018-06-15T23:25:48.221Z,8.57
2018-06-15T23:28:17.037Z,9.10
2018-06-15T23:30:46.139Z,8.33
2018-06-15T23:33:15.228Z,9.10
2018-06-15T23:35:44.399Z,9.60
2018-06-15T23:38:13.539Z,9.50
2018-06-15T23:40:42.133Z,9.10
2018-06-15T23:43:10.834Z,9.83
2018-06-15T23:45:39.654Z,9.70
2018-06-15T23:48:08.446Z,9.97
2018-06-15T23:50:37.221Z,10.20
2018-06-15T23:53:06.345Z,10.30
2018-06-15T23:55:35.563Z,10.27
2018-06-15T23:58:04.153Z,10.30
